sensor_id;sensor_type;location;lat;lon;timestamp;pressure;altitude;pressure_sealevel;temperature;humidity
18900;BME280;9582;52.018;6.306;2023-05-23T00:01:35;103253.06;;;14.91;100.00
18900;BME280;9582;52.018;6.306;2023-05-23T00:04:02;103241.66;;;14.91;100.00
18900;BME280;9582;52.018;6.306;2023-05-23T00:06:30;103240.78;;;14.90;100.00
18900;BME280;9582;52.018;6.306;2023-05-23T00:08:56;103246.03;;;14.90;100.00
18900;BME280;9582;52.018;6.306;2023-05-23T00:11:23;103233.78;;;14.89;100.00
18900;BME280;9582;52.018;6.306;2023-05-23T00:13:51;103229.41;;;14.88;100.00
18900;BME280;9582;52.018;6.306;2023-05-23T00:16:18;103228.53;;;14.89;100.00
18900;BME280;9582;52.018;6.306;2023-05-23T00:18:45;103232.06;;;14.88;100.00
18900;BME280;9582;52.018;6.306;2023-05-23T00:21:12;103228.53;;;14.88;100.00
18900;BME280;9582;52.018;6.306;2023-05-23T00:23:40;103220.69;;;14.86;100.00
18900;BME280;9582;52.018;6.306;2023-05-23T00:26:07;103224.19;;;14.87;100.00
18900;BME280;9582;52.018;6.306;2023-05-23T00:28:35;103218.88;;;14.88;100.00
18900;BME280;9582;52.018;6.306;2023-05-23T00:31:02;103218.00;;;14.89;100.00
18900;BME280;9582;52.018;6.306;2023-05-23T00:33:30;103215.38;;;14.88;100.00
18900;BME280;9582;52.018;6.306;2023-05-23T00:35:57;103226.78;;;14.88;100.00
18900;BME280;9582;52.018;6.306;2023-05-23T00:38:24;103221.59;;;14.85;100.00
18900;BME280;9582;52.018;6.306;2023-05-23T00:40:52;103230.41;;;14.84;100.00
18900;BME280;9582;52.018;6.306;2023-05-23T00:43:18;103226.84;;;14.85;100.00
18900;BME280;9582;52.018;6.306;2023-05-23T00:45:47;103234.81;;;14.84;100.00
18900;BME280;9582;52.018;6.306;2023-05-23T00:48:14;103230.41;;;14.84;100.00
18900;BME280;9582;52.018;6.306;2023-05-23T00:50:41;103240.09;;;14.82;100.00
18900;BME280;9582;52.018;6.306;2023-05-23T00:53:08;103243.66;;;14.81;100.00
18900;BME280;9582;52.018;6.306;2023-05-23T00:55:34;103241.03;;;14.80;100.00
18900;BME280;9582;52.018;6.306;2023-05-23T00:58:02;103248.06;;;14.79;100.00
18900;BME280;9582;52.018;6.306;2023-05-23T01:00:29;103236.72;;;14.77;100.00
18900;BME280;9582;52.018;6.306;2023-05-23T01:02:55;103262.31;;;14.71;100.00
18900;BME280;9582;52.018;6.306;2023-05-23T01:05:22;103254.50;;;14.68;100.00
18900;BME280;9582;52.018;6.306;2023-05-23T01:07:50;103259.00;;;14.64;100.00
18900;BME280;9582;52.018;6.306;2023-05-23T01:10:18;103255.66;;;14.56;100.00
18900;BME280;9582;52.018;6.306;2023-05-23T01:12:54;103256.56;;;14.54;100.00
18900;BME280;9582;52.018;6.306;2023-05-23T01:15:35;103270.72;;;14.50;100.00
18900;BME280;9582;52.018;6.306;2023-05-23T01:18:06;103278.69;;;14.47;100.00
18900;BME280;9582;52.018;6.306;2023-05-23T01:20:40;103288.47;;;14.41;100.00
18900;BME280;9582;52.018;6.306;2023-05-23T01:23:17;103291.16;;;14.37;100.00
18900;BME280;9582;52.018;6.306;2023-05-23T01:26:02;103307.91;;;14.34;100.00
18900;BME280;9582;52.018;6.306;2023-05-23T01:28:34;103295.75;;;14.26;100.00
18900;BME280;9582;52.018;6.306;2023-05-23T01:31:03;103284.41;;;14.24;100.00
18900;BME280;9582;52.018;6.306;2023-05-23T01:33:32;103285.28;;;14.23;100.00
18900;BME280;9582;52.018;6.306;2023-05-23T01:36:01;103283.69;;;14.16;100.00
18900;BME280;9582;52.018;6.306;2023-05-23T01:38:29;103275.00;;;14.12;100.00
18900;BME280;9582;52.018;6.306;2023-05-23T01:40:55;103274.16;;;14.10;100.00
18900;BME280;9582;52.018;6.306;2023-05-23T01:43:23;103269.78;;;14.09;100.00
18900;BME280;9582;52.018;6.306;2023-05-23T01:45:52;103284.75;;;14.06;100.00
18900;BME280;9582;52.018;6.306;2023-05-23T01:48:21;103292.75;;;14.03;100.00
18900;BME280;9582;52.018;6.306;2023-05-23T01:50:49;103298.03;;;14.01;100.00
18900;BME280;9582;52.018;6.306;2023-05-23T01:53:19;103307.75;;;13.98;100.00
18900;BME280;9582;52.018;6.306;2023-05-23T01:55:46;103323.53;;;13.98;100.00
18900;BME280;9582;52.018;6.306;2023-05-23T01:58:13;103339.25;;;14.01;100.00
18900;BME280;9582;52.018;6.306;2023-05-23T02:00:39;103341.88;;;14.01;100.00
18900;BME280;9582;52.018;6.306;2023-05-23T02:03:07;103355.03;;;14.01;100.00
18900;BME280;9582;52.018;6.306;2023-05-23T02:05:34;103355.03;;;14.01;100.00
18900;BME280;9582;52.018;6.306;2023-05-23T02:08:01;103371.75;;;14.00;100.00
18900;BME280;9582;52.018;6.306;2023-05-23T02:10:27;103387.53;;;13.98;100.00
18900;BME280;9582;52.018;6.306;2023-05-23T02:12:54;103391.03;;;13.99;100.00
18900;BME280;9582;52.018;6.306;2023-05-23T02:15:20;103416.47;;;14.00;100.00
18900;BME280;9582;52.018;6.306;2023-05-23T02:17:47;103634.81;;;14.01;100.00
18900;BME280;9582;52.018;6.306;2023-05-23T02:20:15;103666.38;;;14.03;100.00
18900;BME280;9582;52.018;6.306;2023-05-23T02:22:43;103671.63;;;14.03;100.00
18900;BME280;9582;52.018;6.306;2023-05-23T02:25:10;103686.50;;;14.05;100.00
18900;BME280;9582;52.018;6.306;2023-05-23T02:27:38;103689.13;;;14.05;100.00
18900;BME280;9582;52.018;6.306;2023-05-23T02:30:05;103709.28;;;14.08;100.00
18900;BME280;9582;52.018;6.306;2023-05-23T02:32:32;103717.16;;;14.06;100.00
18900;BME280;9582;52.018;6.306;2023-05-23T02:34:59;103742.59;;;14.06;100.00
18900;BME280;9582;52.018;6.306;2023-05-23T02:37:27;103751.44;;;14.02;100.00
18900;BME280;9582;52.018;6.306;2023-05-23T02:39:54;103768.13;;;14.02;100.00
18900;BME280;9582;52.018;6.306;2023-05-23T02:42:21;103785.63;;;14.03;100.00
18900;BME280;9582;52.018;6.306;2023-05-23T02:44:48;103767.25;;;14.00;100.00
18900;BME280;9582;52.018;6.306;2023-05-23T02:47:16;103799.69;;;14.01;100.00
18900;BME280;9582;52.018;6.306;2023-05-23T02:49:42;103781.31;;;13.99;100.00
18900;BME280;9582;52.018;6.306;2023-05-23T02:52:09;103720.81;;;13.95;100.00
18900;BME280;9582;52.018;6.306;2023-05-23T02:54:37;103721.78;;;13.89;100.00
18900;BME280;9582;52.018;6.306;2023-05-23T02:57:04;103751.69;;;13.80;100.00
18900;BME280;9582;52.018;6.306;2023-05-23T02:59:34;103716.66;;;13.78;100.00
18900;BME280;9582;52.018;6.306;2023-05-23T03:02:01;103705.28;;;13.75;100.00
18900;BME280;9582;52.018;6.306;2023-05-23T03:04:27;103792.09;;;13.76;100.00
18900;BME280;9582;52.018;6.306;2023-05-23T03:06:54;103914.00;;;13.74;100.00
18900;BME280;9582;52.018;6.306;2023-05-23T03:09:20;104220.84;;;13.73;100.00
18900;BME280;9582;52.018;6.306;2023-05-23T03:11:48;104252.41;;;13.72;100.00
18900;BME280;9582;52.018;6.306;2023-05-23T03:14:15;104282.22;;;13.72;100.00
18900;BME280;9582;52.018;6.306;2023-05-23T03:16:42;104300.63;;;13.69;100.00
18900;BME280;9582;52.018;6.306;2023-05-23T03:19:08;104408.50;;;13.69;100.00
18900;BME280;9582;52.018;6.306;2023-05-23T03:21:34;104422.53;;;13.68;100.00
18900;BME280;9582;52.018;6.306;2023-05-23T03:24:01;104445.31;;;13.69;100.00
18900;BME280;9582;52.018;6.306;2023-05-23T03:26:29;104474.25;;;13.69;100.00
18900;BME280;9582;52.018;6.306;2023-05-23T03:28:57;104605.78;;;13.69;100.00
18900;BME280;9582;52.018;6.306;2023-05-23T03:31:23;104809.22;;;13.68;100.00
18900;BME280;9582;52.018;6.306;2023-05-23T03:33:50;104843.41;;;13.65;100.00
18900;BME280;9582;52.018;6.306;2023-05-23T03:36:17;104276.09;;;13.67;100.00
18900;BME280;9582;52.018;6.306;2023-05-23T03:38:44;104302.38;;;13.69;100.00
18900;BME280;9582;52.018;6.306;2023-05-23T03:41:11;104312.06;;;13.67;100.00
18900;BME280;9582;52.018;6.306;2023-05-23T03:43:37;104315.56;;;13.67;100.00
18900;BME280;9582;52.018;6.306;2023-05-23T03:46:05;104315.53;;;13.69;100.00
18900;BME280;9582;52.018;6.306;2023-05-23T03:48:32;104298.03;;;13.68;100.00
18900;BME280;9582;52.018;6.306;2023-05-23T03:50:59;104332.22;;;13.66;100.00
18900;BME280;9582;52.018;6.306;2023-05-23T03:53:26;104325.22;;;13.61;100.00
18900;BME280;9582;52.018;6.306;2023-05-23T03:55:53;104326.97;;;13.59;100.00
18900;BME280;9582;52.018;6.306;2023-05-23T03:58:20;104335.75;;;13.52;100.00
18900;BME280;9582;52.018;6.306;2023-05-23T04:00:50;104320.84;;;13.49;100.00
18900;BME280;9582;52.018;6.306;2023-05-23T04:03:19;104324.34;;;13.47;100.00
18900;BME280;9582;52.018;6.306;2023-05-23T04:05:45;104319.97;;;13.47;100.00
18900;BME280;9582;52.018;6.306;2023-05-23T04:08:12;104314.72;;;13.47;100.00
18900;BME280;9582;52.018;6.306;2023-05-23T04:10:39;104313.84;;;13.48;100.00
18900;BME280;9582;52.018;6.306;2023-05-23T04:13:06;104312.94;;;13.49;100.00
18900;BME280;9582;52.018;6.306;2023-05-23T04:15:33;104314.72;;;13.50;100.00
18900;BME280;9582;52.018;6.306;2023-05-23T04:18:06;104302.44;;;13.49;100.00
18900;BME280;9582;52.018;6.306;2023-05-23T04:20:34;104304.19;;;13.50;100.00
18900;BME280;9582;52.018;6.306;2023-05-23T04:23:01;104305.97;;;13.51;100.00
18900;BME280;9582;52.018;6.306;2023-05-23T04:25:29;104298.94;;;13.50;100.00
18900;BME280;9582;52.018;6.306;2023-05-23T04:28:07;104301.59;;;13.52;100.00
18900;BME280;9582;52.018;6.306;2023-05-23T04:30:35;104298.06;;;13.53;100.00
18900;BME280;9582;52.018;6.306;2023-05-23T04:33:01;104294.56;;;13.54;100.00
18900;BME280;9582;52.018;6.306;2023-05-23T04:35:28;104302.44;;;13.55;100.00
18900;BME280;9582;52.018;6.306;2023-05-23T04:37:55;104290.16;;;13.56;100.00
18900;BME280;9582;52.018;6.306;2023-05-23T04:40:24;104286.66;;;13.60;100.00
18900;BME280;9582;52.018;6.306;2023-05-23T04:43:13;104291.03;;;13.61;100.00
18900;BME280;9582;52.018;6.306;2023-05-23T04:45:48;104285.78;;;13.59;100.00
18900;BME280;9582;52.018;6.306;2023-05-23T04:48:26;104287.53;;;13.60;100.00
18900;BME280;9582;52.018;6.306;2023-05-23T04:50:54;104283.16;;;13.59;100.00
18900;BME280;9582;52.018;6.306;2023-05-23T04:53:23;104271.75;;;13.59;100.00
18900;BME280;9582;52.018;6.306;2023-05-23T04:55:50;104275.25;;;13.61;100.00
18900;BME280;9582;52.018;6.306;2023-05-23T04:58:17;104266.50;;;13.59;100.00
18900;BME280;9582;52.018;6.306;2023-05-23T05:00:44;104262.97;;;13.58;100.00
18900;BME280;9582;52.018;6.306;2023-05-23T05:03:13;104268.22;;;13.61;100.00
18900;BME280;9582;52.018;6.306;2023-05-23T05:05:43;104264.72;;;13.62;100.00
18900;BME280;9582;52.018;6.306;2023-05-23T05:08:09;104267.34;;;13.64;100.00
18900;BME280;9582;52.018;6.306;2023-05-23T05:10:40;104267.38;;;13.62;100.00
18900;BME280;9582;52.018;6.306;2023-05-23T05:13:07;104260.34;;;13.60;100.00
18900;BME280;9582;52.018;6.306;2023-05-23T05:15:41;104260.41;;;13.46;100.00
18900;BME280;9582;52.018;6.306;2023-05-23T05:18:08;104254.25;;;13.35;100.00
18900;BME280;9582;52.018;6.306;2023-05-23T05:20:36;104261.28;;;13.30;100.00
18900;BME280;9582;52.018;6.306;2023-05-23T05:23:03;104248.16;;;13.22;100.00
18900;BME280;9582;52.018;6.306;2023-05-23T05:25:29;104243.78;;;13.18;100.00
18900;BME280;9582;52.018;6.306;2023-05-23T05:28:01;104248.19;;;13.15;100.00
18900;BME280;9582;52.018;6.306;2023-05-23T05:30:30;104235.91;;;13.08;100.00
18900;BME280;9582;52.018;6.306;2023-05-23T05:32:59;104238.50;;;13.05;100.00
18900;BME280;9582;52.018;6.306;2023-05-23T05:35:26;104230.63;;;13.02;100.00
18900;BME280;9582;52.018;6.306;2023-05-23T05:37:53;104233.25;;;13.00;100.00
18900;BME280;9582;52.018;6.306;2023-05-23T05:40:20;104230.63;;;13.02;100.00
18900;BME280;9582;52.018;6.306;2023-05-23T05:42:46;104228.88;;;12.93;100.00
18900;BME280;9582;52.018;6.306;2023-05-23T05:45:15;104230.66;;;12.87;100.00
18900;BME280;9582;52.018;6.306;2023-05-23T05:47:43;104224.50;;;12.86;100.00
18900;BME280;9582;52.018;6.306;2023-05-23T05:50:10;104230.63;;;12.79;100.00
18900;BME280;9582;52.018;6.306;2023-05-23T05:52:37;104228.88;;;12.77;100.00
18900;BME280;9582;52.018;6.306;2023-05-23T05:55:06;104228.00;;;12.76;100.00
18900;BME280;9582;52.018;6.306;2023-05-23T05:57:35;104219.25;;;12.72;100.00
18900;BME280;9582;52.018;6.306;2023-05-23T06:00:04;104230.63;;;12.74;100.00
18900;BME280;9582;52.018;6.306;2023-05-23T06:02:45;104230.63;;;12.71;100.00
18900;BME280;9582;52.018;6.306;2023-05-23T06:05:15;104228.84;;;12.64;100.00
18900;BME280;9582;52.018;6.306;2023-05-23T06:07:43;104223.63;;;12.63;100.00
18900;BME280;9582;52.018;6.306;2023-05-23T06:10:10;104224.50;;;12.57;100.00
18900;BME280;9582;52.018;6.306;2023-05-23T06:12:38;104238.47;;;12.56;100.00
18900;BME280;9582;52.018;6.306;2023-05-23T06:15:06;104223.59;;;12.46;100.00
18900;BME280;9582;52.018;6.306;2023-05-23T06:17:36;104228.84;;;12.49;100.00
18900;BME280;9582;52.018;6.306;2023-05-23T06:20:05;104239.38;;;12.52;100.00
18900;BME280;9582;52.018;6.306;2023-05-23T06:22:33;104242.84;;;12.48;100.00
18900;BME280;9582;52.018;6.306;2023-05-23T06:24:59;104234.09;;;12.43;100.00
18900;BME280;9582;52.018;6.306;2023-05-23T06:27:26;104227.97;;;12.41;100.00
18900;BME280;9582;52.018;6.306;2023-05-23T06:29:52;104234.97;;;12.41;100.00
18900;BME280;9582;52.018;6.306;2023-05-23T06:32:20;104242.84;;;12.38;100.00
18900;BME280;9582;52.018;6.306;2023-05-23T06:34:47;104239.31;;;12.37;100.00
18900;BME280;9582;52.018;6.306;2023-05-23T06:37:14;104230.59;;;12.35;100.00
18900;BME280;9582;52.018;6.306;2023-05-23T06:39:42;104242.81;;;12.36;100.00
18900;BME280;9582;52.018;6.306;2023-05-23T06:42:08;104232.31;;;12.32;100.00
18900;BME280;9582;52.018;6.306;2023-05-23T06:44:53;104247.22;;;12.33;100.00
18900;BME280;9582;52.018;6.306;2023-05-23T06:47:19;104247.19;;;12.30;100.00
18900;BME280;9582;52.018;6.306;2023-05-23T06:49:47;104255.91;;;12.23;100.00
18900;BME280;9582;52.018;6.306;2023-05-23T06:52:15;104241.03;;;12.23;100.00
18900;BME280;9582;52.018;6.306;2023-05-23T06:54:43;104243.69;;;12.22;100.00
18900;BME280;9582;52.018;6.306;2023-05-23T06:57:09;104254.16;;;12.19;100.00
18900;BME280;9582;52.018;6.306;2023-05-23T06:59:36;104235.78;;;12.17;100.00
18900;BME280;9582;52.018;6.306;2023-05-23T07:02:03;104233.16;;;12.12;100.00
18900;BME280;9582;52.018;6.306;2023-05-23T07:04:30;104232.25;;;12.09;100.00
18900;BME280;9582;52.018;6.306;2023-05-23T07:07:01;104241.88;;;12.04;100.00
18900;BME280;9582;52.018;6.306;2023-05-23T07:09:29;104237.50;;;12.01;100.00
18900;BME280;9582;52.018;6.306;2023-05-23T07:12:05;104226.97;;;12.03;100.00
18900;BME280;9582;52.018;6.306;2023-05-23T07:14:33;104229.59;;;12.03;100.00
18900;BME280;9582;52.018;6.306;2023-05-23T07:17:02;104226.97;;;12.03;100.00
18900;BME280;9582;52.018;6.306;2023-05-23T07:19:29;104227.88;;;12.05;100.00
18900;BME280;9582;52.018;6.306;2023-05-23T07:21:56;104230.50;;;12.05;100.00
18900;BME280;9582;52.018;6.306;2023-05-23T07:24:23;104233.97;;;12.01;100.00
18900;BME280;9582;52.018;6.306;2023-05-23T07:26:51;104239.25;;;12.04;100.00
18900;BME280;9582;52.018;6.306;2023-05-23T07:29:18;104241.00;;;12.05;100.00
18900;BME280;9582;52.018;6.306;2023-05-23T07:31:46;104236.59;;;12.01;100.00
18900;BME280;9582;52.018;6.306;2023-05-23T07:34:13;104234.84;;;12.00;100.00
18900;BME280;9582;52.018;6.306;2023-05-23T07:36:49;104235.72;;;11.96;100.00
18900;BME280;9582;52.018;6.306;2023-05-23T07:39:16;104239.25;;;11.99;100.00
18900;BME280;9582;52.018;6.306;2023-05-23T07:41:47;104238.38;;;12.02;100.00
18900;BME280;9582;52.018;6.306;2023-05-23T07:44:18;104239.22;;;12.01;100.00
18900;BME280;9582;52.018;6.306;2023-05-23T07:46:45;104259.31;;;11.94;100.00
18900;BME280;9582;52.018;6.306;2023-05-23T07:49:11;104239.16;;;11.86;100.00
18900;BME280;9582;52.018;6.306;2023-05-23T07:51:38;104241.78;;;11.84;100.00
18900;BME280;9582;52.018;6.306;2023-05-23T07:54:05;104241.81;;;11.87;100.00
18900;BME280;9582;52.018;6.306;2023-05-23T07:56:32;104239.19;;;11.95;100.00
18900;BME280;9582;52.018;6.306;2023-05-23T07:58:59;104257.63;;;12.11;100.00
18900;BME280;9582;52.018;6.306;2023-05-23T08:01:27;104255.94;;;12.35;100.00
18900;BME280;9582;52.018;6.306;2023-05-23T08:04:02;104251.63;;;12.47;100.00
18900;BME280;9582;52.018;6.306;2023-05-23T08:06:33;104261.28;;;12.66;100.00
18900;BME280;9582;52.018;6.306;2023-05-23T08:09:04;104258.63;;;12.71;100.00
18900;BME280;9582;52.018;6.306;2023-05-23T08:11:32;104249.91;;;12.78;100.00
18900;BME280;9582;52.018;6.306;2023-05-23T08:13:59;104263.03;;;12.93;100.00
18900;BME280;9582;52.018;6.306;2023-05-23T08:16:38;104266.56;;;13.07;100.00
18900;BME280;9582;52.018;6.306;2023-05-23T08:19:10;104272.69;;;13.20;100.00
18900;BME280;9582;52.018;6.306;2023-05-23T08:21:37;104273.56;;;13.16;100.00
18900;BME280;9582;52.018;6.306;2023-05-23T08:24:04;104275.31;;;13.08;100.00
18900;BME280;9582;52.018;6.306;2023-05-23T08:26:31;104272.66;;;12.99;100.00
18900;BME280;9582;52.018;6.306;2023-05-23T08:29:01;104260.41;;;12.93;100.00
18900;BME280;9582;52.018;6.306;2023-05-23T08:31:29;104265.66;;;12.92;100.00
18900;BME280;9582;52.018;6.306;2023-05-23T08:33:58;104277.03;;;12.94;100.00
18900;BME280;9582;52.018;6.306;2023-05-23T08:36:24;104270.91;;;12.89;100.00
18900;BME280;9582;52.018;6.306;2023-05-23T08:38:51;104288.41;;;12.93;100.00
18900;BME280;9582;52.018;6.306;2023-05-23T08:41:30;104286.66;;;12.96;100.00
18900;BME280;9582;52.018;6.306;2023-05-23T08:44:03;104292.81;;;13.30;100.00
18900;BME280;9582;52.018;6.306;2023-05-23T08:46:39;104305.91;;;13.69;100.00
18900;BME280;9582;52.018;6.306;2023-05-23T08:49:09;104318.06;;;14.07;100.00
18900;BME280;9582;52.018;6.306;2023-05-23T08:51:37;104328.47;;;14.43;100.00
18900;BME280;9582;52.018;6.306;2023-05-23T08:54:11;104310.03;;;14.44;100.00
18900;BME280;9582;52.018;6.306;2023-05-23T08:56:39;104289.91;;;14.24;100.00
18900;BME280;9582;52.018;6.306;2023-05-23T08:59:08;104298.84;;;13.86;100.00
18900;BME280;9582;52.018;6.306;2023-05-23T09:01:35;104311.22;;;13.60;100.00
18900;BME280;9582;52.018;6.306;2023-05-23T09:04:05;104329.63;;;13.48;100.00
18900;BME280;9582;52.018;6.306;2023-05-23T09:06:42;104325.25;;;13.29;100.00
18900;BME280;9582;52.018;6.306;2023-05-23T09:09:09;104333.13;;;13.34;100.00
18900;BME280;9582;52.018;6.306;2023-05-23T09:11:36;104348.91;;;13.41;100.00
18900;BME280;9582;52.018;6.306;2023-05-23T09:14:07;104352.41;;;13.40;100.00
18900;BME280;9582;52.018;6.306;2023-05-23T09:16:36;104352.44;;;13.46;100.00
18900;BME280;9582;52.018;6.306;2023-05-23T09:19:10;104353.28;;;13.48;100.00
18900;BME280;9582;52.018;6.306;2023-05-23T09:21:43;104354.16;;;13.53;100.00
18900;BME280;9582;52.018;6.306;2023-05-23T09:24:34;104345.38;;;13.62;100.00
18900;BME280;9582;52.018;6.306;2023-05-23T09:27:04;104312.06;;;13.59;100.00
18900;BME280;9582;52.018;6.306;2023-05-23T09:29:31;104301.56;;;13.56;100.00
18900;BME280;9582;52.018;6.306;2023-05-23T09:31:59;104290.19;;;13.45;100.00
18900;BME280;9582;52.018;6.306;2023-05-23T09:34:27;104262.13;;;13.38;100.00
18900;BME280;9582;52.018;6.306;2023-05-23T09:36:55;104242.84;;;13.45;100.00
18900;BME280;9582;52.018;6.306;2023-05-23T09:39:21;104220.09;;;13.46;100.00
18900;BME280;9582;52.018;6.306;2023-05-23T09:41:48;104179.78;;;13.36;100.00
18900;BME280;9582;52.018;6.306;2023-05-23T09:44:21;104109.72;;;13.24;100.00
18900;BME280;9582;52.018;6.306;2023-05-23T09:46:50;104095.66;;;13.36;100.00
18900;BME280;9582;52.018;6.306;2023-05-23T09:49:18;104066.72;;;13.42;100.00
18900;BME280;9582;52.018;6.306;2023-05-23T09:51:58;104028.13;;;13.44;100.00
18900;BME280;9582;52.018;6.306;2023-05-23T09:54:25;103973.84;;;13.39;100.00
18900;BME280;9582;52.018;6.306;2023-05-23T09:56:52;103972.84;;;13.59;100.00
18900;BME280;9582;52.018;6.306;2023-05-23T09:59:21;103972.50;;;13.99;100.00
18900;BME280;9582;52.018;6.306;2023-05-23T10:01:50;103984.31;;;14.48;100.00
18900;BME280;9582;52.018;6.306;2023-05-23T10:04:20;103868.59;;;14.39;100.00
18900;BME280;9582;52.018;6.306;2023-05-23T10:06:50;103750.13;;;14.37;100.00
18900;BME280;9582;52.018;6.306;2023-05-23T10:09:20;103678.09;;;14.41;100.00
18900;BME280;9582;52.018;6.306;2023-05-23T10:15:08;103513.19;;;14.37;100.00
18900;BME280;9582;52.018;6.306;2023-05-23T10:17:40;103485.53;;;14.61;100.00
18900;BME280;9582;52.018;6.306;2023-05-23T10:20:15;103471.66;;;14.53;100.00
18900;BME280;9582;52.018;6.306;2023-05-23T10:22:42;103485.03;;;14.85;100.00
18900;BME280;9582;52.018;6.306;2023-05-23T10:25:10;103474.06;;;15.07;100.00
18900;BME280;9582;52.018;6.306;2023-05-23T10:27:38;103486.66;;;14.92;100.00
18900;BME280;9582;52.018;6.306;2023-05-23T10:30:06;103441.59;;;15.04;100.00
18900;BME280;9582;52.018;6.306;2023-05-23T10:32:33;103436.13;;;15.14;100.00
18900;BME280;9582;52.018;6.306;2023-05-23T10:35:04;103393.44;;;14.98;100.00
18900;BME280;9582;52.018;6.306;2023-05-23T10:37:38;103387.22;;;15.00;100.00
18900;BME280;9582;52.018;6.306;2023-05-23T10:40:26;103405.78;;;15.33;100.00
18900;BME280;9582;52.018;6.306;2023-05-23T10:43:02;103415.13;;;15.49;100.00
18900;BME280;9582;52.018;6.306;2023-05-23T10:45:39;103281.69;;;15.07;100.00
18900;BME280;9582;52.018;6.306;2023-05-23T10:48:19;103230.38;;;15.20;100.00
18900;BME280;9582;52.018;6.306;2023-05-23T10:50:45;103218.50;;;15.37;100.00
18900;BME280;9582;52.018;6.306;2023-05-23T10:53:28;103217.50;;;15.41;100.00
18900;BME280;9582;52.018;6.306;2023-05-23T10:55:56;103238.06;;;15.63;100.00
18900;BME280;9582;52.018;6.306;2023-05-23T10:58:22;103247.44;;;15.73;100.00
18900;BME280;9582;52.018;6.306;2023-05-23T11:00:53;103227.44;;;15.66;100.00
18900;BME280;9582;52.018;6.306;2023-05-23T11:03:48;103248.53;;;15.96;100.00
18900;BME280;9582;52.018;6.306;2023-05-23T11:06:28;103169.94;;;15.77;100.00
18900;BME280;9582;52.018;6.306;2023-05-23T11:09:03;103105.78;;;16.04;100.00
18900;BME280;9582;52.018;6.306;2023-05-23T11:11:53;103049.16;;;15.86;100.00
18900;BME280;9582;52.018;6.306;2023-05-23T11:14:31;103031.81;;;15.79;100.00
18900;BME280;9582;52.018;6.306;2023-05-23T11:17:14;103016.41;;;15.66;100.00
18900;BME280;9582;52.018;6.306;2023-05-23T11:19:54;103010.06;;;15.71;100.00
18900;BME280;9582;52.018;6.306;2023-05-23T11:22:26;102955.13;;;15.57;100.00
18900;BME280;9582;52.018;6.306;2023-05-23T11:24:54;102900.56;;;15.59;100.00
18900;BME280;9582;52.018;6.306;2023-05-23T11:27:32;102724.28;;;15.95;100.00
18900;BME280;9582;52.018;6.306;2023-05-23T11:30:02;102528.78;;;16.23;100.00
18900;BME280;9582;52.018;6.306;2023-05-23T11:32:29;102453.09;;;16.24;100.00
18900;BME280;9582;52.018;6.306;2023-05-23T11:35:00;102432.44;;;16.33;100.00
18900;BME280;9582;52.018;6.306;2023-05-23T11:37:27;102550.25;;;16.57;100.00
18900;BME280;9582;52.018;6.306;2023-05-23T11:39:54;102388.56;;;16.31;100.00
18900;BME280;9582;52.018;6.306;2023-05-23T11:42:21;102255.69;;;16.11;100.00
18900;BME280;9582;52.018;6.306;2023-05-23T11:44:49;102304.09;;;16.31;100.00
18900;BME280;9582;52.018;6.306;2023-05-23T11:47:16;102355.75;;;16.16;100.00
18900;BME280;9582;52.018;6.306;2023-05-23T11:49:44;102388.41;;;15.93;100.00
18900;BME280;9582;52.018;6.306;2023-05-23T11:52:11;102348.06;;;15.91;100.00
18900;BME280;9582;52.018;6.306;2023-05-23T11:54:39;102382.97;;;15.76;100.00
18900;BME280;9582;52.018;6.306;2023-05-23T11:57:07;102378.97;;;15.88;100.00
18900;BME280;9582;52.018;6.306;2023-05-23T11:59:33;102411.97;;;15.98;100.00
18900;BME280;9582;52.018;6.306;2023-05-23T12:02:02;102460.34;;;15.77;100.00
18900;BME280;9582;52.018;6.306;2023-05-23T12:04:29;102465.72;;;16.17;100.00
18900;BME280;9582;52.018;6.306;2023-05-23T12:06:55;102473.00;;;16.72;100.00
18900;BME280;9582;52.018;6.306;2023-05-23T12:09:22;102485.69;;;16.85;100.00
18900;BME280;9582;52.018;6.306;2023-05-23T12:11:48;102510.81;;;16.53;100.00
18900;BME280;9582;52.018;6.306;2023-05-23T12:14:16;102567.22;;;16.30;100.00
18900;BME280;9582;52.018;6.306;2023-05-23T12:16:43;102724.41;;;16.39;100.00
18900;BME280;9582;52.018;6.306;2023-05-23T12:19:13;102776.25;;;16.86;100.00
18900;BME280;9582;52.018;6.306;2023-05-23T12:21:44;102818.00;;;16.55;100.00
18900;BME280;9582;52.018;6.306;2023-05-23T12:24:15;102810.97;;;16.31;100.00
18900;BME280;9582;52.018;6.306;2023-05-23T12:26:49;102816.53;;;16.46;100.00
18900;BME280;9582;52.018;6.306;2023-05-23T12:29:18;102824.75;;;16.39;100.00
18900;BME280;9582;52.018;6.306;2023-05-23T12:31:50;102836.06;;;16.17;100.00
18900;BME280;9582;52.018;6.306;2023-05-23T12:34:20;102845.56;;;16.23;100.00
18900;BME280;9582;52.018;6.306;2023-05-23T12:36:46;102878.75;;;16.55;100.00
18900;BME280;9582;52.018;6.306;2023-05-23T12:39:23;102842.78;;;16.51;100.00
18900;BME280;9582;52.018;6.306;2023-05-23T12:41:49;102833.56;;;16.38;100.00
18900;BME280;9582;52.018;6.306;2023-05-23T12:44:16;102823.28;;;16.55;100.00
18900;BME280;9582;52.018;6.306;2023-05-23T12:46:43;102789.00;;;16.53;100.00
18900;BME280;9582;52.018;6.306;2023-05-23T12:49:09;102760.69;;;16.57;100.00
18900;BME280;9582;52.018;6.306;2023-05-23T12:51:37;102798.13;;;16.45;100.00
18900;BME280;9582;52.018;6.306;2023-05-23T12:54:04;102831.03;;;16.11;100.00
18900;BME280;9582;52.018;6.306;2023-05-23T12:56:30;102846.22;;;15.80;100.00
18900;BME280;9582;52.018;6.306;2023-05-23T12:58:57;102814.19;;;15.66;100.00
18900;BME280;9582;52.018;6.306;2023-05-23T13:01:23;102811.75;;;15.60;100.00
18900;BME280;9582;52.018;6.306;2023-05-23T13:03:50;102770.53;;;15.57;100.00